Time;durP1;ratioP1;P1;durP2;ratioP2;P2;SDS_P1;SDS_P2;PMS_P1;PMS_P2;Temp;Humidity;BMP_temperature;BMP_pressure;BME280_temperature;BME280_humidity;BME280_pressure;Samples;Min_cycle;Max_cycle;Signal;HPM_P1;HPM_P2
2022/08/15 00:01:14;;;;;;;4.75;4.20;;;;;;;24.83;44.12;94681.06;4884579;29;20276;-82
2022/08/15 00:03:43;;;;;;;4.57;4.28;;;;;;;24.85;44.42;94689.47;4891584;29;20243;-83
2022/08/15 00:06:14;;;;;;;4.75;4.18;;;;;;;24.86;44.10;94691.03;4901520;29;20219;-83
2022/08/15 00:08:44;;;;;;;4.50;4.10;;;;;;;24.83;44.10;94681.06;4885938;29;20271;-83
2022/08/15 00:11:16;;;;;;;4.60;4.20;;;;;;;24.85;44.03;94682.34;4892385;29;20195;-82
2022/08/15 00:13:44;;;;;;;4.28;3.90;;;;;;;24.87;43.83;94677.56;4901039;29;20644;-83
2022/08/15 00:16:13;;;;;;;4.57;4.18;;;;;;;24.87;44.20;94682.84;4884832;29;20207;-83
2022/08/15 00:18:42;;;;;;;4.50;4.10;;;;;;;24.87;44.21;94684.69;4885527;29;20819;-83
2022/08/15 00:21:10;;;;;;;5.38;4.03;;;;;;;24.84;44.15;94690.53;4903593;29;20211;-83
2022/08/15 00:23:40;;;;;;;4.30;3.83;;;;;;;24.76;44.36;94687.50;4889342;29;20244;-83
2022/08/15 00:26:09;;;;;;;4.53;4.15;;;;;;;24.79;44.48;94681.66;4884946;29;20574;-83
2022/08/15 00:28:37;;;;;;;4.65;4.20;;;;;;;24.77;44.48;94685.66;4897839;29;20658;-82
2022/08/15 00:31:05;;;;;;;4.43;4.03;;;;;;;24.69;44.75;94687.06;4903355;29;20243;-82
2022/08/15 00:33:32;;;;;;;4.90;3.90;;;;;;;24.59;45.08;94681.97;4900536;29;20305;-82
2022/08/15 00:35:59;;;;;;;4.72;4.03;;;;;;;24.62;45.02;94685.88;4920535;29;20226;-83
2022/08/15 00:38:29;;;;;;;4.47;4.00;;;;;;;24.61;44.95;94677.22;4923031;29;20242;-83
2022/08/15 00:43:48;;;;;;;4.55;4.15;;;;;;;24.53;45.25;94685.75;4903394;29;20238;-83
2022/08/15 00:46:16;;;;;;;4.95;3.67;;;;;;;24.57;45.19;94692.00;4890281;29;20207;-83
2022/08/15 00:48:43;;;;;;;4.78;4.00;;;;;;;24.60;44.84;94691.44;4903383;29;20330;-83
2022/08/15 00:51:14;;;;;;;4.47;4.07;;;;;;;24.61;44.82;94693.00;4886670;29;20208;-82
2022/08/15 00:53:43;;;;;;;4.68;3.92;;;;;;;24.60;44.86;94693.28;4901341;29;20290;-82
2022/08/15 00:56:11;;;;;;;5.53;3.78;;;;;;;24.60;44.78;94685.38;4908827;29;20231;-83
2022/08/15 00:58:39;;;;;;;4.45;4.05;;;;;;;24.58;44.90;94701.47;4894570;29;20226;-82
2022/08/15 01:01:10;;;;;;;7.40;3.95;;;;;;;24.54;44.89;94691.78;4892120;29;20258;-82
2022/08/15 01:03:40;;;;;;;5.88;4.18;;;;;;;24.55;44.76;94688.88;4900062;29;20369;-83
2022/08/15 01:06:08;;;;;;;5.25;3.72;;;;;;;24.57;44.65;94694.63;4911105;29;20207;-83
2022/08/15 01:08:37;;;;;;;4.30;3.90;;;;;;;24.55;44.88;94694.13;4907343;29;20224;-83
2022/08/15 01:11:10;;;;;;;4.38;3.65;;;;;;;24.56;44.86;94687.03;4891576;29;20207;-83
2022/08/15 01:13:36;;;;;;;5.57;3.60;;;;;;;24.53;45.01;94682.31;4894335;29;20298;-83
2022/08/15 01:16:03;;;;;;;4.05;3.70;;;;;;;24.51;45.14;94681.81;4909036;29;20207;-83
2022/08/15 01:18:32;;;;;;;4.47;4.07;;;;;;;24.53;45.12;94688.38;4891532;29;20260;-83
2022/08/15 01:21:05;;;;;;;4.10;3.80;;;;;;;24.54;44.83;94679.41;4890222;29;20243;-83
2022/08/15 01:23:38;;;;;;;4.38;3.97;;;;;;;24.46;45.87;94687.94;4909364;29;20218;-83
2022/08/15 01:26:08;;;;;;;5.05;4.00;;;;;;;24.46;45.48;94680.03;4908824;29;20216;-82
2022/08/15 01:28:38;;;;;;;4.00;3.70;;;;;;;24.44;45.47;94682.94;4908453;29;20199;-83
2022/08/15 01:31:07;;;;;;;4.20;3.80;;;;;;;24.43;45.32;94672.75;4896057;29;20200;-83
2022/08/15 01:33:38;;;;;;;4.10;3.80;;;;;;;24.41;45.36;94683.56;4891785;29;20230;-82
2022/08/15 01:36:05;;;;;;;4.78;4.22;;;;;;;24.39;45.69;94690.94;4908902;29;20227;-83
2022/08/15 01:38:36;;;;;;;3.80;3.50;;;;;;;24.40;45.63;94689.09;4906143;29;20226;-83
2022/08/15 01:41:09;;;;;;;4.40;4.00;;;;;;;24.41;45.79;94686.19;4891010;29;20760;-83
2022/08/15 01:43:46;;;;;;;3.95;3.55;;;;;;;24.45;45.64;94689.00;4907143;29;20634;-82
2022/08/15 01:46:13;;;;;;;4.32;4.00;;;;;;;24.45;45.55;94684.53;4906683;29;20206;-83
2022/08/15 01:48:48;;;;;;;4.90;3.83;;;;;;;24.43;45.74;94688.53;4890162;29;20208;-83
2022/08/15 01:51:17;;;;;;;4.55;4.10;;;;;;;24.41;45.99;94683.56;4892901;29;20207;-83
2022/08/15 01:53:47;;;;;;;6.63;3.92;;;;;;;24.36;45.70;94688.88;4912177;29;20234;-83
2022/08/15 01:56:22;;;;;;;7.28;3.80;;;;;;;24.35;46.00;94682.03;4911570;29;20203;-82
2022/08/15 01:58:48;;;;;;;4.10;3.80;;;;;;;24.34;45.85;94684.97;4894722;29;20233;-82
2022/08/15 02:01:18;;;;;;;4.68;3.72;;;;;;;24.34;45.74;94680.47;4894393;29;20238;-83
2022/08/15 02:03:47;;;;;;;3.95;3.53;;;;;;;24.31;45.88;94688.94;4905465;29;20260;-83
2022/08/15 02:06:18;;;;;;;3.85;3.55;;;;;;;24.28;46.16;94686.88;4894743;29;20210;-82
2022/08/15 02:08:45;;;;;;;5.85;4.07;;;;;;;24.31;46.02;94688.94;4912422;29;20229;-83
2022/08/15 02:11:17;;;;;;;5.07;3.47;;;;;;;24.34;45.92;94700.75;4900960;29;20228;-83
2022/08/15 02:13:44;;;;;;;4.05;3.75;;;;;;;24.35;45.90;94705.72;4895315;29;20286;-83
2022/08/15 02:16:12;;;;;;;4.68;3.63;;;;;;;24.38;45.93;94699.13;4911299;29;20222;-83
2022/08/15 02:18:38;;;;;;;5.20;3.97;;;;;;;24.38;45.81;94705.16;4910478;29;20226;-83
2022/08/15 02:21:05;;;;;;;4.75;3.60;;;;;;;24.36;45.95;94709.94;4893210;29;20204;-83
2022/08/15 02:23:32;;;;;;;4.18;3.70;;;;;;;24.31;46.16;94711.84;4893292;29;20339;-83
2022/08/15 02:26:00;;;;;;;3.50;3.20;;;;;;;24.32;46.51;94713.41;4912134;29;20218;-82
2022/08/15 02:28:28;;;;;;;4.15;3.40;;;;;;;24.29;46.29;94712.13;4900444;29;20207;-82
2022/08/15 02:30:55;;;;;;;4.05;3.65;;;;;;;24.25;46.70;94710.31;4892832;29;20238;-82
2022/08/15 02:33:23;;;;;;;5.07;3.83;;;;;;;24.23;46.45;94707.97;4910400;29;20230;-83
2022/08/15 02:35:51;;;;;;;5.35;3.58;;;;;;;24.21;46.90;94709.31;4891983;29;20208;-82
2022/08/15 02:38:18;;;;;;;3.92;3.47;;;;;;;24.25;46.30;94712.97;4892137;29;20759;-82
2022/08/15 02:40:44;;;;;;;5.00;3.40;;;;;;;24.22;46.65;94714.31;4891251;29;20235;-83
2022/08/15 02:43:13;;;;;;;4.10;3.30;;;;;;;24.23;46.66;94705.34;4910233;29;20234;-83
2022/08/15 02:45:47;;;;;;;4.55;3.28;;;;;;;24.25;46.78;94705.06;4910199;29;20233;-82
2022/08/15 02:48:15;;;;;;;4.03;3.63;;;;;;;24.23;46.75;94707.19;4910388;29;20259;-83
2022/08/15 02:50:42;;;;;;;5.03;3.40;;;;;;;24.24;46.76;94716.69;4892064;29;20235;-83
2022/08/15 02:53:10;;;;;;;6.57;3.15;;;;;;;24.22;46.86;94716.94;4890386;29;20683;-83
2022/08/15 02:55:37;;;;;;;3.60;3.30;;;;;;;24.26;46.64;94711.91;4891262;29;20223;-83
2022/08/15 02:58:04;;;;;;;5.20;3.30;;;;;;;24.28;46.47;94707.13;4890937;29;20233;-83
2022/08/15 03:00:30;;;;;;;4.32;3.47;;;;;;;24.23;46.60;94712.47;4902479;29;20191;-82
2022/08/15 03:03:02;;;;;;;3.55;3.00;;;;;;;24.22;46.61;94708.25;4889071;29;20283;-82
2022/08/15 03:05:31;;;;;;;3.20;2.88;;;;;;;24.23;46.60;94707.97;4908675;29;20286;-83
2022/08/15 03:07:58;;;;;;;3.55;3.25;;;;;;;24.24;46.71;94712.22;4894095;29;20219;-82
2022/08/15 03:10:25;;;;;;;3.30;2.95;;;;;;;24.18;46.79;94710.66;4889926;29;20236;-83
2022/08/15 03:12:55;;;;;;;4.13;3.00;;;;;;;24.19;46.53;94717.50;4905064;29;20766;-83
2022/08/15 03:15:24;;;;;;;3.40;3.08;;;;;;;24.16;46.71;94712.78;4893959;29;20223;-83
2022/08/15 03:17:51;;;;;;;5.13;3.58;;;;;;;24.10;46.91;94713.91;4897216;29;20230;-83
2022/08/15 03:20:19;;;;;;;3.50;3.20;;;;;;;24.08;46.94;94716.03;4908521;29;20218;-83
2022/08/15 03:22:48;;;;;;;5.18;3.15;;;;;;;24.06;46.97;94718.94;4893049;29;20223;-82
2022/08/15 03:25:16;;;;;;;4.00;3.30;;;;;;;24.02;46.88;94720.59;4890471;29;20231;-82
2022/08/15 03:27:43;;;;;;;4.28;2.83;;;;;;;23.93;47.16;94732.00;4892422;29;20200;-83
2022/08/15 03:30:12;;;;;;;3.60;2.88;;;;;;;23.93;47.25;94724.13;4892134;29;20203;-82
2022/08/15 03:32:44;;;;;;;3.28;3.00;;;;;;;23.93;47.39;94729.38;4898456;29;20219;-83
2022/08/15 03:35:10;;;;;;;4.43;2.90;;;;;;;23.88;47.49;94727.59;4908352;29;20251;-84
2022/08/15 03:37:38;;;;;;;4.93;3.15;;;;;;;23.91;47.43;94731.50;4894098;29;20223;-82
2022/08/15 03:40:06;;;;;;;3.92;2.95;;;;;;;23.90;47.46;94725.47;4889450;29;20218;-83
2022/08/15 03:42:33;;;;;;;3.97;2.97;;;;;;;23.88;47.66;94730.22;4889952;29;20243;-83
2022/08/15 03:45:00;;;;;;;2.90;2.70;;;;;;;23.98;47.43;94735.38;4894748;29;20494;-83
2022/08/15 03:47:27;;;;;;;4.07;2.97;;;;;;;23.99;47.46;94736.16;4889642;29;20203;-83
2022/08/15 03:49:53;;;;;;;3.45;3.15;;;;;;;23.95;47.86;94743.03;4888724;29;20578;-82
2022/08/15 03:52:20;;;;;;;3.67;2.83;;;;;;;23.97;47.79;94748.78;4888070;29;20224;-84
2022/08/15 03:54:48;;;;;;;3.28;2.97;;;;;;;23.97;47.91;94748.78;4888062;29;20241;-84
2022/08/15 03:57:14;;;;;;;4.88;2.90;;;;;;;23.93;47.66;94742.53;4895141;29;20211;-84
2022/08/15 03:59:41;;;;;;;5.72;3.00;;;;;;;23.92;47.81;94744.38;4888442;29;20227;-83
2022/08/15 04:02:07;;;;;;;6.78;2.83;;;;;;;23.86;47.95;94742.84;4893420;29;20672;-84
2022/08/15 04:04:34;;;;;;;3.85;2.70;;;;;;;23.80;48.41;94740.56;4886612;29;20239;-84
2022/08/15 04:07:00;;;;;;;4.10;2.88;;;;;;;23.71;48.38;94743.03;4888548;29;20211;-84
2022/08/15 04:09:27;;;;;;;3.33;3.03;;;;;;;23.72;48.53;94739.34;4889334;29;20255;-83
2022/08/15 04:11:55;;;;;;;3.15;2.72;;;;;;;23.70;48.92;94750.13;4888926;29;20216;-84
2022/08/15 04:14:21;;;;;;;4.55;2.95;;;;;;;23.66;48.94;94750.97;4889448;29;20538;-83
2022/08/15 04:16:48;;;;;;;4.47;2.97;;;;;;;23.55;49.80;94754.75;4889188;29;20269;-84
2022/08/15 04:19:15;;;;;;;3.83;2.95;;;;;;;23.49;50.14;94747.94;4889364;29;20291;-83
2022/08/15 04:21:42;;;;;;;4.18;2.65;;;;;;;23.50;50.68;94749.50;4888271;29;20259;-83
2022/08/15 04:24:08;;;;;;;3.40;3.00;;;;;;;23.57;50.94;94761.31;4889553;29;20291;-83
2022/08/15 04:26:35;;;;;;;4.47;3.15;;;;;;;23.53;51.74;94759.50;4890612;29;20204;-83
2022/08/15 04:29:03;;;;;;;2.90;2.70;;;;;;;23.46;51.61;94764.28;4890145;29;20211;-83
2022/08/15 04:31:29;;;;;;;4.28;2.90;;;;;;;23.40;51.69;94780.09;4889404;29;20232;-84
2022/08/15 04:33:56;;;;;;;3.75;2.60;;;;;;;23.40;51.70;94763.53;4889448;29;20239;-84
2022/08/15 04:36:22;;;;;;;3.35;2.70;;;;;;;23.24;51.98;94756.84;4891760;29;20215;-83
2022/08/15 04:38:51;;;;;;;4.72;2.75;;;;;;;23.17;52.30;94761.63;4890308;29;20220;-83
2022/08/15 04:41:18;;;;;;;6.20;2.50;;;;;;;23.15;52.31;94755.88;4889850;29;20211;-83
2022/08/15 04:43:45;;;;;;;3.95;2.83;;;;;;;23.18;52.17;94752.69;4896598;29;20256;-83
2022/08/15 04:46:13;;;;;;;3.20;2.60;;;;;;;23.24;52.13;94751.59;4910779;29;20254;-83
2022/08/15 04:48:39;;;;;;;3.10;2.55;;;;;;;23.35;51.72;94759.13;4911624;29;20210;-84
2022/08/15 04:51:07;;;;;;;2.97;2.70;;;;;;;23.33;52.26;94750.72;4911340;29;20215;-84
2022/08/15 04:53:35;;;;;;;3.03;2.72;;;;;;;23.27;53.00;94767.59;4910539;29;20226;-83
2022/08/15 04:56:05;;;;;;;3.38;2.50;;;;;;;23.18;53.61;94765.81;4910959;29;20210;-83
2022/08/15 04:58:32;;;;;;;5.85;2.85;;;;;;;23.02;54.88;94768.59;4910183;29;20227;-83
2022/08/15 05:01:02;;;;;;;3.45;2.80;;;;;;;23.05;55.42;94773.28;4909679;29;20210;-84
2022/08/15 05:03:29;;;;;;;6.00;2.97;;;;;;;23.09;55.49;94779.53;4908316;29;20218;-83
2022/08/15 05:05:58;;;;;;;3.08;2.75;;;;;;;23.18;55.42;94771.09;4910031;29;20206;-83
2022/08/15 05:08:27;;;;;;;3.85;2.90;;;;;;;23.06;55.91;94774.84;4910367;29;20210;-83
2022/08/15 05:10:57;;;;;;;4.32;2.80;;;;;;;23.08;56.02;94771.97;4908830;29;20225;-83
2022/08/15 05:13:26;;;;;;;4.15;2.83;;;;;;;23.10;56.13;94772.44;4909063;29;20226;-83
2022/08/15 05:15:53;;;;;;;3.97;2.83;;;;;;;23.11;56.62;94783.72;4909337;29;20353;-83
2022/08/15 05:18:20;;;;;;;4.20;2.72;;;;;;;23.11;57.04;94789.00;4909176;29;20370;-83
2022/08/15 05:20:48;;;;;;;3.75;2.95;;;;;;;23.14;56.55;94783.97;4907908;29;20243;-83
2022/08/15 05:23:17;;;;;;;3.10;2.90;;;;;;;23.07;56.99;94780.91;4907608;29;20281;-83
2022/08/15 05:25:46;;;;;;;3.90;2.80;;;;;;;23.05;56.82;94783.00;4907030;29;20222;-84
2022/08/15 05:28:14;;;;;;;4.68;2.60;;;;;;;23.02;57.20;94788.81;4908473;29;20211;-83
2022/08/15 05:30:41;;;;;;;3.03;2.70;;;;;;;22.98;58.02;94787.78;4907197;29;20202;-83
2022/08/15 05:33:11;;;;;;;3.28;2.75;;;;;;;22.91;59.03;94785.44;4907753;29;20295;-84
2022/08/15 05:35:41;;;;;;;3.28;2.80;;;;;;;22.89;58.49;94784.19;4907696;29;20444;-83
2022/08/15 05:38:14;;;;;;;3.42;2.55;;;;;;;22.60;59.24;94782.22;4908210;29;20217;-83
2022/08/15 05:40:51;;;;;;;3.28;3.08;;;;;;;22.51;59.65;94789.09;4907361;29;20274;-83
2022/08/15 05:43:28;;;;;;;5.97;2.40;;;;;;;22.47;59.54;94792.53;4906819;29;20226;-83
2022/08/15 05:46:01;;;;;;;2.55;2.35;;;;;;;22.39;60.03;94797.25;4908247;29;20202;-83
2022/08/15 05:48:31;;;;;;;2.95;2.65;;;;;;;22.42;59.92;94788.06;4908117;29;20213;-83
2022/08/15 05:51:07;;;;;;;3.67;2.75;;;;;;;22.47;59.93;94797.75;4907274;29;20249;-83
2022/08/15 05:53:47;;;;;;;3.95;2.60;;;;;;;22.66;59.73;94799.50;4906093;29;20257;-83
2022/08/15 05:56:22;;;;;;;4.70;2.80;;;;;;;22.68;60.08;94800.00;4907625;29;20239;-83
2022/08/15 05:58:54;;;;;;;4.00;2.70;;;;;;;22.76;59.21;94801.25;4907800;29;20282;-83
2022/08/15 06:01:27;;;;;;;2.42;2.22;;;;;;;22.82;59.11;94813.34;4907435;29;20214;-83
2022/08/15 06:03:59;;;;;;;3.88;2.47;;;;;;;22.73;58.80;94802.59;4906994;29;20249;-83
2022/08/15 06:06:29;;;;;;;3.75;2.90;;;;;;;22.79;58.84;94807.84;4908181;29;20218;-83
2022/08/15 06:09:04;;;;;;;4.53;2.22;;;;;;;22.77;58.44;94805.50;4908260;29;20258;-83
2022/08/15 06:11:38;;;;;;;4.72;2.38;;;;;;;22.79;57.63;94810.47;4906138;29;20241;-83
2022/08/15 06:14:26;;;;;;;3.75;2.38;;;;;;;22.73;57.42;94810.47;4906474;29;20270;-83
2022/08/15 06:16:57;;;;;;;2.40;2.20;;;;;;;22.81;56.66;94798.66;4906321;29;20210;-83
2022/08/15 06:19:27;;;;;;;2.30;2.10;;;;;;;22.89;56.37;94808.59;4907000;29;20250;-83
2022/08/15 06:22:04;;;;;;;2.40;2.20;;;;;;;22.89;56.11;94810.44;4905106;29;20683;-84
2022/08/15 06:24:39;;;;;;;2.30;2.10;;;;;;;22.95;56.16;94814.56;4906030;29;20279;-83
2022/08/15 06:27:11;;;;;;;2.63;2.20;;;;;;;23.01;56.22;94818.75;4904832;29;20317;-83
2022/08/15 06:29:58;;;;;;;2.50;2.30;;;;;;;23.11;56.04;94808.16;4905920;29;20235;-83
2022/08/15 06:32:34;;;;;;;4.57;2.17;;;;;;;23.18;55.83;94813.88;4904929;29;20223;-83
2022/08/15 06:35:11;;;;;;;2.58;2.10;;;;;;;23.12;55.90;94822.84;4904994;29;20515;-84
2022/08/15 06:37:46;;;;;;;2.67;2.10;;;;;;;22.97;55.99;94826.38;4905498;29;20206;-83
2022/08/15 06:40:20;;;;;;;2.40;2.20;;;;;;;22.93;55.97;94827.19;4908554;29;20286;-83
2022/08/15 06:42:47;;;;;;;2.20;2.00;;;;;;;22.96;55.81;94835.31;4908621;29;20262;-84
2022/08/15 06:45:18;;;;;;;4.75;2.42;;;;;;;22.95;56.05;94838.19;4908174;29;20235;-83
2022/08/15 06:47:47;;;;;;;2.00;1.90;;;;;;;22.84;56.08;94842.75;4909283;29;20206;-83
2022/08/15 06:50:18;;;;;;;4.25;1.85;;;;;;;22.99;55.95;94839.22;4907665;29;20540;-83
2022/08/15 06:52:49;;;;;;;2.28;2.05;;;;;;;23.00;55.86;94838.97;4908094;29;20226;-83
2022/08/15 06:55:17;;;;;;;3.83;2.03;;;;;;;23.07;55.82;94836.81;4907856;29;20313;-83
2022/08/15 06:57:51;;;;;;;2.95;2.28;;;;;;;23.13;55.96;94836.78;4907777;29;20215;-83
2022/08/15 07:00:26;;;;;;;2.90;1.95;;;;;;;23.20;55.66;94851.19;4907055;29;20231;-83
2022/08/15 07:03:01;;;;;;;3.13;1.90;;;;;;;23.24;55.75;94848.78;4907271;29;20301;-83
2022/08/15 07:05:31;;;;;;;2.17;1.98;;;;;;;23.09;55.54;94853.06;4889292;29;20369;-83
2022/08/15 07:08:03;;;;;;;2.03;1.80;;;;;;;23.11;55.77;94842.28;4889026;29;20231;-83
2022/08/15 07:10:36;;;;;;;2.83;1.80;;;;;;;23.21;55.39;94837.00;4888212;29;20207;-82
2022/08/15 07:13:06;;;;;;;2.05;1.90;;;;;;;23.18;55.73;94840.16;4889504;29;20227;-83
2022/08/15 07:15:46;;;;;;;2.47;2.05;;;;;;;23.16;55.88;94831.75;4889004;29;20235;-83
2022/08/15 07:18:19;;;;;;;2.75;1.80;;;;;;;23.11;55.13;94837.03;4888910;29;20214;-83
2022/08/15 07:20:45;;;;;;;2.10;1.90;;;;;;;23.10;54.55;94838.09;4888139;29;20232;-82
2022/08/15 07:23:18;;;;;;;2.97;1.92;;;;;;;23.20;54.44;94838.03;4888011;29;20228;-83
2022/08/15 07:25:49;;;;;;;1.95;1.73;;;;;;;23.22;54.54;94835.16;4889235;29;20226;-82
2022/08/15 07:28:18;;;;;;;2.10;1.80;;;;;;;23.32;54.49;94838.47;4889152;29;20207;-83
2022/08/15 07:30:49;;;;;;;2.35;1.88;;;;;;;23.24;54.11;94836.44;4889344;29;20207;-83
2022/08/15 07:33:32;;;;;;;1.98;1.80;;;;;;;23.38;53.75;94844.47;4889491;29;20238;-83
2022/08/15 07:36:02;;;;;;;3.92;2.03;;;;;;;23.47;54.14;94842.06;4890434;29;20209;-84
2022/08/15 07:38:30;;;;;;;1.65;1.55;;;;;;;23.63;53.21;94838.28;4891298;29;20688;-83
2022/08/15 07:41:21;;;;;;;1.98;1.80;;;;;;;24.10;52.38;94832.28;4888975;29;20248;-83
2022/08/15 07:43:49;;;;;;;1.60;1.50;;;;;;;24.41;52.22;94832.75;4895944;29;20246;-83
2022/08/15 07:46:19;;;;;;;2.10;1.90;;;;;;;24.40;52.29;94837.25;4908696;29;20282;-84
2022/08/15 07:48:55;;;;;;;2.28;2.03;;;;;;;24.36;52.46;94835.44;4908162;29;20275;-83
2022/08/15 07:51:25;;;;;;;2.30;1.75;;;;;;;24.53;52.17;94832.34;4908207;29;20213;-84
2022/08/15 07:53:55;;;;;;;1.77;1.67;;;;;;;24.63;52.04;94832.25;4907149;29;20250;-83
2022/08/15 07:56:23;;;;;;;2.70;1.80;;;;;;;24.67;51.39;94830.59;4907062;29;20213;-83
2022/08/15 07:58:54;;;;;;;2.00;1.90;;;;;;;24.68;51.95;94827.66;4906504;29;20231;-83
2022/08/15 08:01:24;;;;;;;2.25;1.90;;;;;;;24.58;51.98;94825.19;4906058;29;20226;-83
2022/08/15 08:03:55;;;;;;;3.53;2.25;;;;;;;24.65;51.59;94830.06;4906660;29;20239;-84
2022/08/15 08:06:29;;;;;;;1.88;1.77;;;;;;;24.88;50.64;94828.47;4906978;29;20218;-84
2022/08/15 08:09:12;;;;;;;2.10;1.90;;;;;;;25.13;51.59;94831.56;4906645;29;20202;-83
2022/08/15 08:11:46;;;;;;;2.05;1.83;;;;;;;25.32;49.41;94836.81;4906372;29;20203;-83
2022/08/15 08:14:24;;;;;;;2.85;2.08;;;;;;;25.25;49.36;94835.59;4906397;29;20251;-83
2022/08/15 08:16:55;;;;;;;2.10;1.90;;;;;;;25.03;50.15;94838.81;4908438;29;20214;-84
2022/08/15 08:19:32;;;;;;;4.28;1.92;;;;;;;24.85;49.85;94839.56;4907662;29;20695;-83
2022/08/15 08:22:05;;;;;;;2.33;2.10;;;;;;;24.61;49.75;94848.31;4907577;29;20190;-84
2022/08/15 08:24:52;;;;;;;2.10;1.85;;;;;;;24.71;49.37;94842.13;4907434;29;20321;-83
2022/08/15 08:27:31;;;;;;;2.00;1.80;;;;;;;24.94;49.10;94843.13;4907204;29;20270;-84
2022/08/15 08:30:03;;;;;;;3.05;2.30;;;;;;;24.97;49.34;94848.66;4906292;29;20236;-83
2022/08/15 08:32:37;;;;;;;3.33;2.03;;;;;;;24.79;49.34;94842.28;4906831;29;20255;-83
2022/08/15 08:35:16;;;;;;;3.33;2.10;;;;;;;24.74;50.19;94844.19;4906212;29;20237;-84
2022/08/15 08:37:48;;;;;;;2.08;1.88;;;;;;;24.77;50.23;94841.00;4905838;29;20236;-83
2022/08/15 08:43:23;;;;;;;2.10;2.00;;;;;;;24.91;50.54;94838.44;4908484;29;20676;-84
2022/08/15 08:45:59;;;;;;;2.30;2.10;;;;;;;24.79;50.88;94841.50;4908195;29;20361;-84
2022/08/15 08:48:38;;;;;;;2.20;2.00;;;;;;;24.73;50.71;94842.63;4908586;29;20210;-83
2022/08/15 08:51:14;;;;;;;2.75;2.10;;;;;;;24.81;51.26;94843.84;4907988;29;20758;-84
2022/08/15 08:53:52;;;;;;;2.35;2.08;;;;;;;24.78;50.97;94835.44;4908016;29;20262;-83
2022/08/15 08:56:22;;;;;;;3.13;2.33;;;;;;;24.73;50.35;94835.50;4908924;29;20273;-83
2022/08/15 08:59:02;;;;;;;4.55;2.38;;;;;;;24.67;50.88;94841.91;4905325;29;20261;-83
2022/08/15 09:01:31;;;;;;;3.35;1.90;;;;;;;24.65;50.93;94840.59;4904504;29;20213;-83
2022/08/15 09:04:02;;;;;;;2.13;1.92;;;;;;;24.59;51.00;94847.03;4905223;29;20310;-83
2022/08/15 09:06:36;;;;;;;2.47;2.28;;;;;;;24.54;51.04;94844.44;4906402;29;20556;-84
2022/08/15 09:09:07;;;;;;;3.15;2.17;;;;;;;24.45;51.42;94841.63;4907433;29;20235;-83
2022/08/15 09:11:40;;;;;;;2.08;1.88;;;;;;;24.34;51.75;94848.09;4905878;29;20203;-84
2022/08/15 09:14:24;;;;;;;2.55;2.08;;;;;;;24.26;52.32;94853.97;4905184;29;20276;-83
2022/08/15 09:16:55;;;;;;;2.22;2.03;;;;;;;24.37;51.80;94852.81;4906496;29;20254;-83
2022/08/15 09:19:26;;;;;;;2.20;2.00;;;;;;;24.38;51.96;94849.91;4905817;29;20317;-84
2022/08/15 09:21:54;;;;;;;2.33;2.03;;;;;;;24.25;51.80;94849.75;4905258;29;20230;-83
2022/08/15 09:24:22;;;;;;;2.22;2.03;;;;;;;24.27;51.66;94851.06;4905419;29;20588;-84
2022/08/15 09:26:56;;;;;;;2.20;2.00;;;;;;;24.32;51.81;94848.38;4905557;29;20210;-83
2022/08/15 09:29:29;;;;;;;2.08;1.95;;;;;;;24.40;51.67;94844.34;4905236;29;20255;-83
2022/08/15 09:32:10;;;;;;;2.67;2.22;;;;;;;24.51;51.32;94837.09;4904066;29;20206;-83
2022/08/15 09:34:59;;;;;;;2.33;2.13;;;;;;;24.61;51.43;94839.63;4903971;29;20242;-83
2022/08/15 09:37:49;;;;;;;2.97;2.05;;;;;;;24.73;51.31;94834.72;4903919;29;20202;-83
2022/08/15 09:40:40;;;;;;;2.05;1.95;;;;;;;24.85;50.91;94835.09;4903280;29;20230;-83
2022/08/15 09:43:34;;;;;;;3.35;1.95;;;;;;;24.88;50.58;94839.78;4903480;29;20257;-83
2022/08/15 09:46:27;;;;;;;2.33;2.10;;;;;;;24.96;50.54;94846.31;4902790;29;20227;-83
2022/08/15 09:49:07;;;;;;;2.80;2.47;;;;;;;25.05;50.76;94852.47;4903028;29;20226;-83
2022/08/15 09:51:48;;;;;;;2.20;2.05;;;;;;;25.05;51.01;94845.38;4903102;29;20271;-83
2022/08/15 09:54:22;;;;;;;2.10;2.00;;;;;;;25.01;49.74;94840.97;4902544;29;20238;-83
2022/08/15 09:56:49;;;;;;;2.47;2.28;;;;;;;25.06;50.00;94841.66;4902976;29;20231;-83
2022/08/15 09:59:19;;;;;;;2.10;2.00;;;;;;;25.07;49.14;94843.22;4903483;29;20203;-83
2022/08/15 10:01:51;;;;;;;2.47;2.28;;;;;;;25.44;48.62;94837.13;4903217;29;20300;-83
2022/08/15 10:04:22;;;;;;;3.58;2.30;;;;;;;25.54;48.45;94836.22;4902591;29;20253;-83
2022/08/15 10:07:18;;;;;;;2.30;1.98;;;;;;;25.55;48.01;94834.34;4903696;29;20213;-83
2022/08/15 10:10:05;;;;;;;1.92;1.80;;;;;;;25.59;48.19;94838.78;4904211;29;20206;-83
2022/08/15 10:12:35;;;;;;;2.20;2.10;;;;;;;25.60;47.78;94847.44;4905337;29;20286;-83
2022/08/15 10:15:07;;;;;;;1.95;1.83;;;;;;;25.65;47.73;94842.91;4906409;29;20231;-83
2022/08/15 10:17:45;;;;;;;3.22;2.40;;;;;;;25.65;47.57;94842.13;4908165;29;20211;-84
2022/08/15 10:20:50;;;;;;;2.22;2.03;;;;;;;25.73;47.66;94839.59;4906871;29;20228;-83
2022/08/15 10:23:16;;;;;;;2.92;2.30;;;;;;;25.72;47.98;94840.69;4906157;29;20262;-82
2022/08/15 10:25:46;;;;;;;2.67;2.38;;;;;;;25.78;48.20;94836.88;4907930;29;20207;-83
2022/08/15 10:28:22;;;;;;;2.30;2.10;;;;;;;25.74;47.85;94838.53;4909242;29;20210;-84
2022/08/15 10:31:20;;;;;;;2.05;1.90;;;;;;;25.71;47.73;94835.69;4907826;29;20234;-83
2022/08/15 10:33:53;;;;;;;3.45;2.28;;;;;;;25.75;48.05;94837.47;4906970;29;20250;-83
2022/08/15 10:36:25;;;;;;;3.10;2.20;;;;;;;25.73;47.72;94839.59;4908941;29;20207;-83
2022/08/15 10:39:02;;;;;;;2.20;2.10;;;;;;;25.67;47.47;94830.22;4909265;29;20499;-83
2022/08/15 10:41:37;;;;;;;2.50;2.30;;;;;;;25.73;47.72;94829.06;4907502;29;20586;-83
2022/08/15 10:44:20;;;;;;;2.53;2.33;;;;;;;25.79;47.54;94827.88;4908090;29;20303;-83
2022/08/15 10:46:58;;;;;;;2.25;2.10;;;;;;;25.81;47.37;94831.00;4908758;29;20207;-84
2022/08/15 10:49:32;;;;;;;2.20;2.10;;;;;;;25.98;47.74;94834.97;4907742;29;20235;-84
2022/08/15 10:52:13;;;;;;;2.60;2.20;;;;;;;25.92;47.21;94831.63;4907339;29;20420;-84
2022/08/15 10:54:58;;;;;;;2.45;2.20;;;;;;;26.02;46.39;94820.88;4906578;29;20286;-83
2022/08/15 10:57:27;;;;;;;2.92;2.40;;;;;;;26.03;46.90;94821.66;4907668;29;20282;-83
2022/08/15 10:59:55;;;;;;;3.05;2.03;;;;;;;26.14;47.04;94825.69;4906802;29;20227;-84
2022/08/15 11:02:27;;;;;;;2.20;2.00;;;;;;;26.20;46.67;94821.88;4906818;29;20229;-84
2022/08/15 11:05:01;;;;;;;2.05;1.95;;;;;;;26.40;45.72;94821.50;4905451;29;20245;-83
2022/08/15 11:07:34;;;;;;;1.92;1.80;;;;;;;26.40;45.54;94820.72;4906077;29;20202;-83
2022/08/15 11:10:04;;;;;;;1.98;1.85;;;;;;;26.42;46.05;94819.34;4906538;29;20587;-83
2022/08/15 11:12:36;;;;;;;2.17;2.08;;;;;;;26.38;45.63;94822.88;4906201;29;20333;-83
2022/08/15 11:15:14;;;;;;;2.50;2.30;;;;;;;26.40;45.88;94815.44;4905027;29;20270;-83
2022/08/15 11:17:45;;;;;;;2.33;2.08;;;;;;;26.61;45.15;94821.88;4907052;29;20707;-83
2022/08/15 11:20:19;;;;;;;3.20;2.15;;;;;;;26.66;44.78;94823.63;4906812;29;20288;-83
2022/08/15 11:22:50;;;;;;;1.80;1.70;;;;;;;26.76;45.02;94816.25;4906668;29;20270;-84
2022/08/15 11:25:20;;;;;;;2.10;1.88;;;;;;;27.10;44.58;94812.41;4905642;29;20317;-84
2022/08/15 11:27:58;;;;;;;2.00;1.90;;;;;;;27.33;42.75;94813.94;4907296;29;20203;-84
2022/08/15 11:30:26;;;;;;;2.28;2.10;;;;;;;27.47;42.60;94809.41;4906344;29;20210;-84
2022/08/15 11:32:53;;;;;;;2.10;2.00;;;;;;;27.47;43.04;94806.75;4906841;29;20230;-84
2022/08/15 11:35:30;;;;;;;2.30;2.10;;;;;;;27.47;43.06;94809.41;4906721;29;20317;-84
2022/08/15 11:38:00;;;;;;;2.35;1.75;;;;;;;27.47;42.41;94798.03;4906396;29;20631;-83
2022/08/15 11:40:31;;;;;;;2.15;1.95;;;;;;;27.31;42.73;94804.78;4905173;29;20776;-84
2022/08/15 11:43:00;;;;;;;2.10;2.00;;;;;;;27.21;42.95;94799.72;4906539;29;20226;-83
2022/08/15 11:45:31;;;;;;;2.70;1.83;;;;;;;27.11;42.76;94795.47;4887560;29;20370;-83
2022/08/15 11:47:59;;;;;;;2.33;2.15;;;;;;;27.07;43.30;94795.28;4887824;29;20208;-83
2022/08/15 11:50:31;;;;;;;1.83;1.70;;;;;;;26.95;42.54;94794.22;4887889;29;20640;-83
2022/08/15 11:53:01;;;;;;;1.90;1.80;;;;;;;26.88;42.74;94797.28;4888212;29;20242;-83
2022/08/15 11:55:44;;;;;;;2.20;2.10;;;;;;;26.80;43.54;94800.59;4888087;29;20327;-83
2022/08/15 11:58:21;;;;;;;1.90;1.80;;;;;;;26.65;43.84;94798.31;4890723;29;20212;-83
2022/08/15 12:00:51;;;;;;;2.03;1.70;;;;;;;26.57;43.40;94793.72;4888662;29;20231;-83